Rodekro, Denmark
Current Conditions -  °F | °C
As of 7:20 PM on Thursday 23 Oct 2014 (Local Time) from EKSP Reporting Station
Haze Haze  
Wind Chill: 52°   Ceiling: 600
Heat Index: 52°   Visibility: 2.8mi
Dew Point: 52°   Wind: 10mph
Humidity: 100%   Direction: 180°S
Pressure: 30.09"   Gusts: NA
Location:  55.07°N, 9.32°E
Report Text: EKSP 231720Z 18009KT 4500 BR BKN006 11/11 Q1019 REDZ
Loading
Personal Weather Stations






























Interactive Weather Map
Tropical Storm Tracking
New forecast layout! Learn more

10-Day Weather Forecast

Advertisements
Track Severe Weather on mobile